sensor_id;sensor_type;location;lat;lon;timestamp;P1;durP1;ratioP1;P2;durP2;ratioP2
6392;SDS011;3229;42.674;23.282;2022-08-19T00:01:22;5.80;;;4.80;;
6392;SDS011;3229;42.674;23.282;2022-08-19T00:03:49;6.55;;;4.65;;
6392;SDS011;3229;42.674;23.282;2022-08-19T00:06:16;6.50;;;4.85;;
6392;SDS011;3229;42.674;23.282;2022-08-19T00:08:43;7.57;;;4.75;;
6392;SDS011;3229;42.674;23.282;2022-08-19T00:11:11;6.38;;;4.65;;
6392;SDS011;3229;42.674;23.282;2022-08-19T00:13:38;6.07;;;5.03;;
6392;SDS011;3229;42.674;23.282;2022-08-19T00:16:06;5.35;;;4.85;;
6392;SDS011;3229;42.674;23.282;2022-08-19T00:18:33;7.10;;;5.40;;
6392;SDS011;3229;42.674;23.282;2022-08-19T00:21:01;5.00;;;4.13;;
6392;SDS011;3229;42.674;23.282;2022-08-19T00:23:32;7.00;;;4.53;;
6392;SDS011;3229;42.674;23.282;2022-08-19T00:25:59;6.38;;;4.90;;
6392;SDS011;3229;42.674;23.282;2022-08-19T00:28:26;7.10;;;4.35;;
6392;SDS011;3229;42.674;23.282;2022-08-19T00:30:53;5.38;;;4.88;;
6392;SDS011;3229;42.674;23.282;2022-08-19T00:33:22;5.07;;;4.57;;
6392;SDS011;3229;42.674;23.282;2022-08-19T00:35:49;5.57;;;4.38;;
6392;SDS011;3229;42.674;23.282;2022-08-19T00:38:15;7.30;;;4.45;;
6392;SDS011;3229;42.674;23.282;2022-08-19T00:40:43;4.90;;;4.13;;
6392;SDS011;3229;42.674;23.282;2022-08-19T00:43:11;5.80;;;4.50;;
6392;SDS011;3229;42.674;23.282;2022-08-19T00:45:39;5.82;;;4.75;;
6392;SDS011;3229;42.674;23.282;2022-08-19T00:48:08;4.72;;;4.32;;
6392;SDS011;3229;42.674;23.282;2022-08-19T00:50:37;5.05;;;4.63;;
6392;SDS011;3229;42.674;23.282;2022-08-19T00:53:08;5.00;;;4.60;;
6392;SDS011;3229;42.674;23.282;2022-08-19T00:55:36;5.40;;;4.18;;
6392;SDS011;3229;42.674;23.282;2022-08-19T00:58:06;5.03;;;4.25;;
6392;SDS011;3229;42.674;23.282;2022-08-19T01:00:36;4.90;;;4.50;;
6392;SDS011;3229;42.674;23.282;2022-08-19T01:03:03;5.57;;;4.10;;
6392;SDS011;3229;42.674;23.282;2022-08-19T01:05:31;5.13;;;4.38;;
6392;SDS011;3229;42.674;23.282;2022-08-19T01:08:01;4.47;;;4.07;;
6392;SDS011;3229;42.674;23.282;2022-08-19T01:10:31;5.78;;;4.18;;
6392;SDS011;3229;42.674;23.282;2022-08-19T01:13:02;4.82;;;4.43;;
6392;SDS011;3229;42.674;23.282;2022-08-19T01:15:31;4.88;;;4.38;;
6392;SDS011;3229;42.674;23.282;2022-08-19T01:18:00;4.68;;;4.28;;
6392;SDS011;3229;42.674;23.282;2022-08-19T01:20:32;5.80;;;4.57;;
6392;SDS011;3229;42.674;23.282;2022-08-19T01:23:00;8.55;;;4.97;;
6392;SDS011;3229;42.674;23.282;2022-08-19T01:25:30;5.22;;;4.75;;
6392;SDS011;3229;42.674;23.282;2022-08-19T01:27:59;7.95;;;4.90;;
6392;SDS011;3229;42.674;23.282;2022-08-19T01:30:27;5.85;;;4.72;;
6392;SDS011;3229;42.674;23.282;2022-08-19T01:32:56;4.30;;;3.95;;
6392;SDS011;3229;42.674;23.282;2022-08-19T01:35:27;6.07;;;4.15;;
6392;SDS011;3229;42.674;23.282;2022-08-19T01:37:56;8.85;;;4.68;;
6392;SDS011;3229;42.674;23.282;2022-08-19T01:40:27;5.03;;;3.75;;
6392;SDS011;3229;42.674;23.282;2022-08-19T01:42:56;6.78;;;4.65;;
6392;SDS011;3229;42.674;23.282;2022-08-19T01:45:23;6.70;;;5.40;;
6392;SDS011;3229;42.674;23.282;2022-08-19T01:47:52;5.15;;;4.75;;
6392;SDS011;3229;42.674;23.282;2022-08-19T01:50:20;5.55;;;5.05;;
6392;SDS011;3229;42.674;23.282;2022-08-19T01:52:47;4.85;;;4.45;;
6392;SDS011;3229;42.674;23.282;2022-08-19T01:55:16;5.40;;;4.90;;
6392;SDS011;3229;42.674;23.282;2022-08-19T01:57:47;5.50;;;4.60;;
6392;SDS011;3229;42.674;23.282;2022-08-19T02:00:17;5.45;;;4.63;;
6392;SDS011;3229;42.674;23.282;2022-08-19T02:02:45;7.50;;;5.25;;
6392;SDS011;3229;42.674;23.282;2022-08-19T02:05:13;5.47;;;4.97;;
6392;SDS011;3229;42.674;23.282;2022-08-19T02:07:43;5.60;;;5.10;;
6392;SDS011;3229;42.674;23.282;2022-08-19T02:10:11;5.70;;;5.03;;
6392;SDS011;3229;42.674;23.282;2022-08-19T02:12:40;5.05;;;4.57;;
6392;SDS011;3229;42.674;23.282;2022-08-19T02:15:09;6.18;;;4.80;;
6392;SDS011;3229;42.674;23.282;2022-08-19T02:17:36;5.32;;;4.82;;
6392;SDS011;3229;42.674;23.282;2022-08-19T02:20:04;9.40;;;5.05;;
6392;SDS011;3229;42.674;23.282;2022-08-19T02:22:32;12.32;;;5.28;;
6392;SDS011;3229;42.674;23.282;2022-08-19T02:25:00;6.07;;;5.45;;
6392;SDS011;3229;42.674;23.282;2022-08-19T02:27:29;8.00;;;5.47;;
6392;SDS011;3229;42.674;23.282;2022-08-19T02:29:58;7.80;;;6.18;;
6392;SDS011;3229;42.674;23.282;2022-08-19T02:32:27;6.65;;;5.20;;
6392;SDS011;3229;42.674;23.282;2022-08-19T02:34:55;7.45;;;5.88;;
6392;SDS011;3229;42.674;23.282;2022-08-19T02:37:22;7.38;;;5.85;;
6392;SDS011;3229;42.674;23.282;2022-08-19T02:40:07;10.27;;;6.25;;
6392;SDS011;3229;42.674;23.282;2022-08-19T02:42:34;10.55;;;5.90;;
6392;SDS011;3229;42.674;23.282;2022-08-19T02:45:01;8.75;;;6.50;;
6392;SDS011;3229;42.674;23.282;2022-08-19T02:47:32;7.57;;;6.25;;
6392;SDS011;3229;42.674;23.282;2022-08-19T02:50:00;8.63;;;5.45;;
6392;SDS011;3229;42.674;23.282;2022-08-19T02:52:27;9.50;;;6.72;;
6392;SDS011;3229;42.674;23.282;2022-08-19T02:54:54;9.93;;;5.93;;
6392;SDS011;3229;42.674;23.282;2022-08-19T02:57:22;9.10;;;6.07;;
6392;SDS011;3229;42.674;23.282;2022-08-19T02:59:49;10.40;;;5.93;;
6392;SDS011;3229;42.674;23.282;2022-08-19T03:02:16;9.23;;;5.53;;
6392;SDS011;3229;42.674;23.282;2022-08-19T03:04:44;10.10;;;5.50;;
6392;SDS011;3229;42.674;23.282;2022-08-19T03:07:12;11.25;;;5.85;;
6392;SDS011;3229;42.674;23.282;2022-08-19T03:09:40;14.13;;;5.57;;
6392;SDS011;3229;42.674;23.282;2022-08-19T03:12:07;8.05;;;5.57;;
6392;SDS011;3229;42.674;23.282;2022-08-19T03:14:35;8.07;;;5.75;;
6392;SDS011;3229;42.674;23.282;2022-08-19T03:17:07;10.10;;;5.57;;
6392;SDS011;3229;42.674;23.282;2022-08-19T03:19:34;7.22;;;5.43;;
6392;SDS011;3229;42.674;23.282;2022-08-19T03:22:02;10.18;;;5.82;;
6392;SDS011;3229;42.674;23.282;2022-08-19T03:24:30;13.18;;;5.93;;
6392;SDS011;3229;42.674;23.282;2022-08-19T03:26:57;7.78;;;6.20;;
6392;SDS011;3229;42.674;23.282;2022-08-19T03:29:24;6.47;;;5.65;;
6392;SDS011;3229;42.674;23.282;2022-08-19T03:31:52;9.82;;;6.07;;
6392;SDS011;3229;42.674;23.282;2022-08-19T03:34:21;7.53;;;5.90;;
6392;SDS011;3229;42.674;23.282;2022-08-19T03:36:51;7.82;;;6.10;;
6392;SDS011;3229;42.674;23.282;2022-08-19T03:39:20;9.40;;;6.60;;
6392;SDS011;3229;42.674;23.282;2022-08-19T03:41:48;10.07;;;6.78;;
6392;SDS011;3229;42.674;23.282;2022-08-19T03:44:17;8.20;;;6.45;;
6392;SDS011;3229;42.674;23.282;2022-08-19T03:46:46;11.10;;;6.45;;
6392;SDS011;3229;42.674;23.282;2022-08-19T03:49:14;12.73;;;6.70;;
6392;SDS011;3229;42.674;23.282;2022-08-19T03:51:42;6.72;;;5.40;;
6392;SDS011;3229;42.674;23.282;2022-08-19T03:54:11;9.85;;;6.53;;
6392;SDS011;3229;42.674;23.282;2022-08-19T03:56:41;8.85;;;6.53;;
6392;SDS011;3229;42.674;23.282;2022-08-19T03:59:10;9.80;;;6.65;;
6392;SDS011;3229;42.674;23.282;2022-08-19T04:01:38;8.18;;;6.68;;
6392;SDS011;3229;42.674;23.282;2022-08-19T04:04:06;19.90;;;6.63;;
6392;SDS011;3229;42.674;23.282;2022-08-19T04:06:34;9.07;;;6.80;;
6392;SDS011;3229;42.674;23.282;2022-08-19T04:09:04;7.53;;;5.95;;
6392;SDS011;3229;42.674;23.282;2022-08-19T04:11:33;7.65;;;6.10;;
6392;SDS011;3229;42.674;23.282;2022-08-19T04:14:08;14.40;;;6.88;;
6392;SDS011;3229;42.674;23.282;2022-08-19T04:16:36;9.00;;;6.43;;
6392;SDS011;3229;42.674;23.282;2022-08-19T04:19:04;8.95;;;6.60;;
6392;SDS011;3229;42.674;23.282;2022-08-19T04:21:31;8.75;;;6.70;;
6392;SDS011;3229;42.674;23.282;2022-08-19T04:23:59;9.70;;;6.07;;
6392;SDS011;3229;42.674;23.282;2022-08-19T04:26:28;6.97;;;6.28;;
6392;SDS011;3229;42.674;23.282;2022-08-19T04:28:58;7.97;;;6.22;;
6392;SDS011;3229;42.674;23.282;2022-08-19T04:31:28;9.27;;;6.13;;
6392;SDS011;3229;42.674;23.282;2022-08-19T04:34:01;8.20;;;6.70;;
6392;SDS011;3229;42.674;23.282;2022-08-19T04:36:31;7.50;;;6.70;;
6392;SDS011;3229;42.674;23.282;2022-08-19T04:39:02;7.47;;;6.72;;
6392;SDS011;3229;42.674;23.282;2022-08-19T04:41:30;7.55;;;6.60;;
6392;SDS011;3229;42.674;23.282;2022-08-19T04:44:29;10.90;;;6.88;;
6392;SDS011;3229;42.674;23.282;2022-08-19T04:46:58;10.07;;;6.10;;
6392;SDS011;3229;42.674;23.282;2022-08-19T04:49:26;11.25;;;6.72;;
6392;SDS011;3229;42.674;23.282;2022-08-19T04:51:53;17.48;;;7.82;;
6392;SDS011;3229;42.674;23.282;2022-08-19T04:54:22;10.50;;;8.27;;
6392;SDS011;3229;42.674;23.282;2022-08-19T04:56:50;9.23;;;7.03;;
6392;SDS011;3229;42.674;23.282;2022-08-19T04:59:19;12.82;;;6.88;;
6392;SDS011;3229;42.674;23.282;2022-08-19T05:01:46;8.52;;;7.55;;
6392;SDS011;3229;42.674;23.282;2022-08-19T05:04:16;17.63;;;8.48;;
6392;SDS011;3229;42.674;23.282;2022-08-19T05:06:45;12.77;;;8.93;;
6392;SDS011;3229;42.674;23.282;2022-08-19T05:09:14;13.75;;;8.70;;
6392;SDS011;3229;42.674;23.282;2022-08-19T05:11:42;17.35;;;8.73;;
6392;SDS011;3229;42.674;23.282;2022-08-19T05:14:10;18.25;;;8.13;;
6392;SDS011;3229;42.674;23.282;2022-08-19T05:16:38;13.02;;;7.68;;
6392;SDS011;3229;42.674;23.282;2022-08-19T05:19:06;11.93;;;7.65;;
6392;SDS011;3229;42.674;23.282;2022-08-19T05:21:52;12.95;;;6.40;;
6392;SDS011;3229;42.674;23.282;2022-08-19T05:24:37;12.60;;;7.38;;
6392;SDS011;3229;42.674;23.282;2022-08-19T05:27:04;14.23;;;7.63;;
6392;SDS011;3229;42.674;23.282;2022-08-19T05:29:32;12.35;;;6.95;;
6392;SDS011;3229;42.674;23.282;2022-08-19T05:32:00;10.82;;;6.53;;
6392;SDS011;3229;42.674;23.282;2022-08-19T05:34:30;11.60;;;7.55;;
6392;SDS011;3229;42.674;23.282;2022-08-19T05:36:59;11.35;;;7.03;;
6392;SDS011;3229;42.674;23.282;2022-08-19T05:39:30;12.43;;;8.32;;
6392;SDS011;3229;42.674;23.282;2022-08-19T05:42:00;11.70;;;7.57;;
6392;SDS011;3229;42.674;23.282;2022-08-19T05:44:32;20.35;;;7.43;;
6392;SDS011;3229;42.674;23.282;2022-08-19T05:47:02;12.63;;;7.97;;
6392;SDS011;3229;42.674;23.282;2022-08-19T05:49:32;17.23;;;7.43;;
6392;SDS011;3229;42.674;23.282;2022-08-19T05:52:03;13.70;;;7.82;;
6392;SDS011;3229;42.674;23.282;2022-08-19T05:54:32;14.45;;;7.70;;
6392;SDS011;3229;42.674;23.282;2022-08-19T05:57:01;15.55;;;8.10;;
6392;SDS011;3229;42.674;23.282;2022-08-19T05:59:28;14.32;;;8.13;;
6392;SDS011;3229;42.674;23.282;2022-08-19T06:01:55;10.15;;;8.05;;
6392;SDS011;3229;42.674;23.282;2022-08-19T06:04:22;14.10;;;8.10;;
6392;SDS011;3229;42.674;23.282;2022-08-19T06:06:51;12.90;;;8.02;;
6392;SDS011;3229;42.674;23.282;2022-08-19T06:09:21;13.20;;;7.75;;
6392;SDS011;3229;42.674;23.282;2022-08-19T06:11:49;14.10;;;8.43;;
6392;SDS011;3229;42.674;23.282;2022-08-19T06:14:19;14.02;;;8.30;;
6392;SDS011;3229;42.674;23.282;2022-08-19T06:16:48;12.60;;;8.15;;
6392;SDS011;3229;42.674;23.282;2022-08-19T06:19:16;13.82;;;8.63;;
6392;SDS011;3229;42.674;23.282;2022-08-19T06:21:46;13.45;;;7.88;;
6392;SDS011;3229;42.674;23.282;2022-08-19T06:24:15;14.85;;;9.13;;
6392;SDS011;3229;42.674;23.282;2022-08-19T06:26:46;13.38;;;8.43;;
6392;SDS011;3229;42.674;23.282;2022-08-19T06:29:15;11.15;;;8.63;;
6392;SDS011;3229;42.674;23.282;2022-08-19T06:31:45;10.40;;;8.25;;
6392;SDS011;3229;42.674;23.282;2022-08-19T06:34:14;9.20;;;7.10;;
6392;SDS011;3229;42.674;23.282;2022-08-19T06:36:44;8.23;;;6.22;;
6392;SDS011;3229;42.674;23.282;2022-08-19T06:39:14;13.07;;;6.90;;
6392;SDS011;3229;42.674;23.282;2022-08-19T06:41:43;12.23;;;6.22;;
6392;SDS011;3229;42.674;23.282;2022-08-19T06:44:14;11.38;;;6.93;;
6392;SDS011;3229;42.674;23.282;2022-08-19T06:46:41;7.78;;;6.65;;
6392;SDS011;3229;42.674;23.282;2022-08-19T06:49:09;9.23;;;7.20;;
6392;SDS011;3229;42.674;23.282;2022-08-19T06:51:38;12.00;;;6.35;;
6392;SDS011;3229;42.674;23.282;2022-08-19T06:54:06;7.15;;;6.40;;
6392;SDS011;3229;42.674;23.282;2022-08-19T06:56:33;10.00;;;6.32;;
6392;SDS011;3229;42.674;23.282;2022-08-19T06:59:02;10.32;;;6.53;;
6392;SDS011;3229;42.674;23.282;2022-08-19T07:01:33;8.60;;;7.22;;
6392;SDS011;3229;42.674;23.282;2022-08-19T07:04:03;7.00;;;6.18;;
6392;SDS011;3229;42.674;23.282;2022-08-19T07:06:31;8.88;;;6.65;;
6392;SDS011;3229;42.674;23.282;2022-08-19T07:08:58;8.38;;;6.80;;
6392;SDS011;3229;42.674;23.282;2022-08-19T07:11:25;9.25;;;6.88;;
6392;SDS011;3229;42.674;23.282;2022-08-19T07:13:52;6.53;;;5.88;;
6392;SDS011;3229;42.674;23.282;2022-08-19T07:16:21;8.63;;;6.47;;
6392;SDS011;3229;42.674;23.282;2022-08-19T07:18:48;12.35;;;6.80;;
6392;SDS011;3229;42.674;23.282;2022-08-19T07:21:17;9.52;;;6.03;;
6392;SDS011;3229;42.674;23.282;2022-08-19T07:23:46;8.55;;;6.28;;
6392;SDS011;3229;42.674;23.282;2022-08-19T07:26:15;9.50;;;7.22;;
6392;SDS011;3229;42.674;23.282;2022-08-19T07:28:46;10.48;;;6.85;;
6392;SDS011;3229;42.674;23.282;2022-08-19T07:31:14;10.50;;;6.18;;
6392;SDS011;3229;42.674;23.282;2022-08-19T07:33:46;10.02;;;6.05;;
6392;SDS011;3229;42.674;23.282;2022-08-19T07:36:14;8.57;;;5.80;;
6392;SDS011;3229;42.674;23.282;2022-08-19T07:38:44;9.63;;;5.95;;
6392;SDS011;3229;42.674;23.282;2022-08-19T07:41:14;7.80;;;6.13;;
6392;SDS011;3229;42.674;23.282;2022-08-19T07:43:42;12.98;;;6.45;;
6392;SDS011;3229;42.674;23.282;2022-08-19T07:46:09;7.13;;;5.93;;
6392;SDS011;3229;42.674;23.282;2022-08-19T07:48:38;10.73;;;6.10;;
6392;SDS011;3229;42.674;23.282;2022-08-19T07:51:08;9.32;;;5.60;;
6392;SDS011;3229;42.674;23.282;2022-08-19T07:53:36;9.55;;;6.13;;
6392;SDS011;3229;42.674;23.282;2022-08-19T07:56:03;10.27;;;6.40;;
6392;SDS011;3229;42.674;23.282;2022-08-19T07:58:32;8.40;;;5.82;;
6392;SDS011;3229;42.674;23.282;2022-08-19T08:01:00;7.18;;;5.68;;
6392;SDS011;3229;42.674;23.282;2022-08-19T08:03:28;8.88;;;5.90;;
6392;SDS011;3229;42.674;23.282;2022-08-19T08:06:10;14.40;;;6.90;;
6392;SDS011;3229;42.674;23.282;2022-08-19T08:08:55;9.40;;;6.32;;
6392;SDS011;3229;42.674;23.282;2022-08-19T08:11:41;8.13;;;6.15;;
6392;SDS011;3229;42.674;23.282;2022-08-19T08:14:15;9.45;;;6.22;;
6392;SDS011;3229;42.674;23.282;2022-08-19T08:16:43;11.07;;;6.05;;
6392;SDS011;3229;42.674;23.282;2022-08-19T08:19:10;12.18;;;6.13;;
6392;SDS011;3229;42.674;23.282;2022-08-19T08:21:41;15.05;;;6.53;;
6392;SDS011;3229;42.674;23.282;2022-08-19T08:24:09;13.30;;;6.25;;
6392;SDS011;3229;42.674;23.282;2022-08-19T08:26:36;10.95;;;6.30;;
6392;SDS011;3229;42.674;23.282;2022-08-19T08:29:03;10.00;;;5.40;;
6392;SDS011;3229;42.674;23.282;2022-08-19T08:31:30;10.05;;;6.20;;
6392;SDS011;3229;42.674;23.282;2022-08-19T08:33:58;15.40;;;6.38;;
6392;SDS011;3229;42.674;23.282;2022-08-19T08:36:25;9.15;;;5.45;;
6392;SDS011;3229;42.674;23.282;2022-08-19T08:38:53;7.85;;;5.28;;
6392;SDS011;3229;42.674;23.282;2022-08-19T08:41:22;12.75;;;4.90;;
6392;SDS011;3229;42.674;23.282;2022-08-19T08:43:54;6.07;;;4.47;;
6392;SDS011;3229;42.674;23.282;2022-08-19T08:46:24;7.90;;;5.03;;
6392;SDS011;3229;42.674;23.282;2022-08-19T08:48:58;8.60;;;6.05;;
6392;SDS011;3229;42.674;23.282;2022-08-19T08:51:32;9.95;;;5.60;;
6392;SDS011;3229;42.674;23.282;2022-08-19T08:54:04;11.50;;;5.70;;
6392;SDS011;3229;42.674;23.282;2022-08-19T08:56:33;12.60;;;4.55;;
6392;SDS011;3229;42.674;23.282;2022-08-19T08:59:02;6.55;;;4.18;;
6392;SDS011;3229;42.674;23.282;2022-08-19T09:01:33;5.13;;;4.60;;
6392;SDS011;3229;42.674;23.282;2022-08-19T09:04:02;6.82;;;4.30;;
6392;SDS011;3229;42.674;23.282;2022-08-19T09:06:32;4.50;;;3.97;;
6392;SDS011;3229;42.674;23.282;2022-08-19T09:09:09;6.03;;;3.75;;
6392;SDS011;3229;42.674;23.282;2022-08-19T09:11:48;6.72;;;4.30;;
6392;SDS011;3229;42.674;23.282;2022-08-19T09:14:28;7.57;;;4.57;;
6392;SDS011;3229;42.674;23.282;2022-08-19T09:17:03;5.95;;;3.75;;
6392;SDS011;3229;42.674;23.282;2022-08-19T09:19:33;22.17;;;4.60;;
6392;SDS011;3229;42.674;23.282;2022-08-19T09:22:01;5.65;;;4.28;;
6392;SDS011;3229;42.674;23.282;2022-08-19T09:24:29;5.78;;;3.50;;
6392;SDS011;3229;42.674;23.282;2022-08-19T09:26:56;3.90;;;3.58;;
6392;SDS011;3229;42.674;23.282;2022-08-19T09:29:22;6.07;;;3.97;;
6392;SDS011;3229;42.674;23.282;2022-08-19T09:31:49;4.50;;;3.78;;
6392;SDS011;3229;42.674;23.282;2022-08-19T09:34:16;5.47;;;3.92;;
6392;SDS011;3229;42.674;23.282;2022-08-19T09:36:45;4.78;;;3.53;;
6392;SDS011;3229;42.674;23.282;2022-08-19T09:39:11;3.72;;;3.40;;
6392;SDS011;3229;42.674;23.282;2022-08-19T09:41:40;4.97;;;3.33;;
6392;SDS011;3229;42.674;23.282;2022-08-19T09:44:06;4.30;;;3.70;;
6392;SDS011;3229;42.674;23.282;2022-08-19T09:46:33;6.15;;;3.55;;
6392;SDS011;3229;42.674;23.282;2022-08-19T09:49:00;5.60;;;3.35;;
6392;SDS011;3229;42.674;23.282;2022-08-19T09:51:29;7.82;;;3.83;;
6392;SDS011;3229;42.674;23.282;2022-08-19T09:53:59;4.47;;;3.80;;
6392;SDS011;3229;42.674;23.282;2022-08-19T09:56:27;10.93;;;3.95;;
6392;SDS011;3229;42.674;23.282;2022-08-19T09:58:57;4.10;;;3.53;;
6392;SDS011;3229;42.674;23.282;2022-08-19T10:01:24;3.70;;;3.40;;
6392;SDS011;3229;42.674;23.282;2022-08-19T10:03:54;7.88;;;3.65;;
6392;SDS011;3229;42.674;23.282;2022-08-19T10:06:22;7.55;;;3.80;;
6392;SDS011;3229;42.674;23.282;2022-08-19T10:08:51;4.88;;;3.30;;
6392;SDS011;3229;42.674;23.282;2022-08-19T10:11:19;3.58;;;3.28;;
6392;SDS011;3229;42.674;23.282;2022-08-19T10:13:47;3.45;;;3.15;;
6392;SDS011;3229;42.674;23.282;2022-08-19T10:16:16;3.33;;;3.00;;
6392;SDS011;3229;42.674;23.282;2022-08-19T10:18:44;3.75;;;3.45;;
6392;SDS011;3229;42.674;23.282;2022-08-19T10:21:12;6.70;;;3.72;;
6392;SDS011;3229;42.674;23.282;2022-08-19T10:23:42;4.78;;;3.65;;
6392;SDS011;3229;42.674;23.282;2022-08-19T10:26:11;4.82;;;3.75;;
6392;SDS011;3229;42.674;23.282;2022-08-19T10:28:40;5.32;;;3.58;;
6392;SDS011;3229;42.674;23.282;2022-08-19T10:31:07;4.30;;;3.40;;
6392;SDS011;3229;42.674;23.282;2022-08-19T10:33:37;4.32;;;3.42;;
6392;SDS011;3229;42.674;23.282;2022-08-19T10:36:06;6.82;;;3.95;;
6392;SDS011;3229;42.674;23.282;2022-08-19T10:38:35;3.70;;;3.40;;
6392;SDS011;3229;42.674;23.282;2022-08-19T10:41:07;8.10;;;3.47;;
6392;SDS011;3229;42.674;23.282;2022-08-19T10:43:34;9.43;;;4.20;;
6392;SDS011;3229;42.674;23.282;2022-08-19T10:46:03;7.07;;;4.28;;
6392;SDS011;3229;42.674;23.282;2022-08-19T10:48:31;7.43;;;4.80;;
6392;SDS011;3229;42.674;23.282;2022-08-19T10:51:00;6.50;;;4.68;;
6392;SDS011;3229;42.674;23.282;2022-08-19T10:53:44;5.70;;;4.50;;
6392;SDS011;3229;42.674;23.282;2022-08-19T10:56:11;5.38;;;4.25;;
6392;SDS011;3229;42.674;23.282;2022-08-19T10:58:55;6.45;;;4.20;;
6392;SDS011;3229;42.674;23.282;2022-08-19T11:01:23;9.20;;;4.40;;
6392;SDS011;3229;42.674;23.282;2022-08-19T11:03:50;4.78;;;3.78;;
6392;SDS011;3229;42.674;23.282;2022-08-19T11:06:19;4.30;;;3.88;;
6392;SDS011;3229;42.674;23.282;2022-08-19T11:08:46;5.30;;;3.35;;
6392;SDS011;3229;42.674;23.282;2022-08-19T11:11:13;4.65;;;4.13;;
6392;SDS011;3229;42.674;23.282;2022-08-19T11:13:40;7.22;;;4.18;;
6392;SDS011;3229;42.674;23.282;2022-08-19T11:16:09;6.63;;;4.10;;
6392;SDS011;3229;42.674;23.282;2022-08-19T11:18:40;4.30;;;3.90;;
6392;SDS011;3229;42.674;23.282;2022-08-19T11:21:14;4.78;;;3.88;;
6392;SDS011;3229;42.674;23.282;2022-08-19T11:23:46;4.30;;;3.80;;
6392;SDS011;3229;42.674;23.282;2022-08-19T11:26:14;4.47;;;4.07;;
6392;SDS011;3229;42.674;23.282;2022-08-19T11:28:41;5.10;;;4.55;;
6392;SDS011;3229;42.674;23.282;2022-08-19T11:31:11;8.32;;;4.40;;
6392;SDS011;3229;42.674;23.282;2022-08-19T11:33:41;7.32;;;4.30;;
6392;SDS011;3229;42.674;23.282;2022-08-19T11:36:09;6.03;;;3.85;;
6392;SDS011;3229;42.674;23.282;2022-08-19T11:38:36;4.88;;;4.05;;
6392;SDS011;3229;42.674;23.282;2022-08-19T11:41:05;6.80;;;4.13;;
6392;SDS011;3229;42.674;23.282;2022-08-19T11:43:33;4.75;;;4.15;;
6392;SDS011;3229;42.674;23.282;2022-08-19T11:46:03;6.28;;;4.50;;
6392;SDS011;3229;42.674;23.282;2022-08-19T11:48:32;6.28;;;4.05;;
6392;SDS011;3229;42.674;23.282;2022-08-19T11:51:02;4.53;;;4.13;;
6392;SDS011;3229;42.674;23.282;2022-08-19T11:53:31;4.78;;;4.22;;
6392;SDS011;3229;42.674;23.282;2022-08-19T11:55:59;4.78;;;4.32;;
6392;SDS011;3229;42.674;23.282;2022-08-19T11:58:28;4.43;;;4.03;;
6392;SDS011;3229;42.674;23.282;2022-08-19T12:00:55;4.40;;;4.00;;
6392;SDS011;3229;42.674;23.282;2022-08-19T12:03:22;6.57;;;4.00;;
6392;SDS011;3229;42.674;23.282;2022-08-19T12:05:49;7.63;;;4.35;;
6392;SDS011;3229;42.674;23.282;2022-08-19T12:08:17;4.25;;;3.58;;
6392;SDS011;3229;42.674;23.282;2022-08-19T12:10:44;7.07;;;4.72;;
6392;SDS011;3229;42.674;23.282;2022-08-19T12:13:12;7.60;;;4.18;;
6392;SDS011;3229;42.674;23.282;2022-08-19T12:15:45;4.22;;;3.83;;
6392;SDS011;3229;42.674;23.282;2022-08-19T12:18:13;4.82;;;3.63;;
6392;SDS011;3229;42.674;23.282;2022-08-19T12:20:40;6.47;;;4.07;;
6392;SDS011;3229;42.674;23.282;2022-08-19T12:23:09;4.82;;;4.22;;
6392;SDS011;3229;42.674;23.282;2022-08-19T12:25:37;5.93;;;4.13;;
6392;SDS011;3229;42.674;23.282;2022-08-19T12:28:16;5.00;;;4.47;;
6392;SDS011;3229;42.674;23.282;2022-08-19T12:30:45;8.07;;;4.38;;
6392;SDS011;3229;42.674;23.282;2022-08-19T12:33:12;4.50;;;4.10;;
6392;SDS011;3229;42.674;23.282;2022-08-19T12:35:40;6.57;;;4.78;;
6392;SDS011;3229;42.674;23.282;2022-08-19T12:38:07;5.85;;;3.85;;
6392;SDS011;3229;42.674;23.282;2022-08-19T12:40:34;6.40;;;3.97;;
6392;SDS011;3229;42.674;23.282;2022-08-19T12:43:01;4.13;;;3.67;;
6392;SDS011;3229;42.674;23.282;2022-08-19T12:45:28;4.50;;;4.10;;
6392;SDS011;3229;42.674;23.282;2022-08-19T12:47:56;7.13;;;3.85;;
6392;SDS011;3229;42.674;23.282;2022-08-19T12:50:23;7.57;;;4.40;;
6392;SDS011;3229;42.674;23.282;2022-08-19T12:52:50;6.35;;;3.75;;
6392;SDS011;3229;42.674;23.282;2022-08-19T12:55:17;4.28;;;3.90;;
6392;SDS011;3229;42.674;23.282;2022-08-19T12:57:44;8.60;;;4.63;;
6392;SDS011;3229;42.674;23.282;2022-08-19T13:00:14;4.40;;;4.00;;
6392;SDS011;3229;42.674;23.282;2022-08-19T13:02:44;4.68;;;4.10;;
6392;SDS011;3229;42.674;23.282;2022-08-19T13:05:17;5.43;;;3.90;;
6392;SDS011;3229;42.674;23.282;2022-08-19T13:07:47;8.80;;;6.65;;
6392;SDS011;3229;42.674;23.282;2022-08-19T13:10:16;17.65;;;15.85;;
6392;SDS011;3229;42.674;23.282;2022-08-19T13:12:45;14.05;;;11.48;;
6392;SDS011;3229;42.674;23.282;2022-08-19T13:15:14;10.27;;;9.00;;
6392;SDS011;3229;42.674;23.282;2022-08-19T13:17:45;6.00;;;4.18;;
6392;SDS011;3229;42.674;23.282;2022-08-19T13:20:13;4.25;;;3.85;;
6392;SDS011;3229;42.674;23.282;2022-08-19T13:22:44;6.10;;;4.13;;
6392;SDS011;3229;42.674;23.282;2022-08-19T13:25:12;7.15;;;5.05;;
6392;SDS011;3229;42.674;23.282;2022-08-19T13:27:41;5.78;;;4.28;;
6392;SDS011;3229;42.674;23.282;2022-08-19T13:30:09;5.85;;;4.75;;
6392;SDS011;3229;42.674;23.282;2022-08-19T13:32:55;7.18;;;3.88;;
6392;SDS011;3229;42.674;23.282;2022-08-19T13:35:39;7.65;;;4.88;;
6392;SDS011;3229;42.674;23.282;2022-08-19T13:38:07;10.07;;;4.40;;
6392;SDS011;3229;42.674;23.282;2022-08-19T13:40:34;5.15;;;4.00;;
6392;SDS011;3229;42.674;23.282;2022-08-19T13:43:01;6.45;;;4.60;;
6392;SDS011;3229;42.674;23.282;2022-08-19T13:45:30;6.85;;;4.80;;
6392;SDS011;3229;42.674;23.282;2022-08-19T13:47:59;4.53;;;3.80;;
6392;SDS011;3229;42.674;23.282;2022-08-19T13:50:30;9.82;;;5.70;;
6392;SDS011;3229;42.674;23.282;2022-08-19T13:52:59;5.55;;;4.68;;
6392;SDS011;3229;42.674;23.282;2022-08-19T13:55:27;4.43;;;4.03;;
6392;SDS011;3229;42.674;23.282;2022-08-19T13:57:54;8.70;;;4.15;;
6392;SDS011;3229;42.674;23.282;2022-08-19T14:00:23;4.63;;;3.42;;
6392;SDS011;3229;42.674;23.282;2022-08-19T14:02:52;4.32;;;3.92;;
6392;SDS011;3229;42.674;23.282;2022-08-19T14:05:21;9.77;;;4.85;;
6392;SDS011;3229;42.674;23.282;2022-08-19T14:07:48;5.05;;;4.20;;
6392;SDS011;3229;42.674;23.282;2022-08-19T14:10:17;7.22;;;4.22;;
6392;SDS011;3229;42.674;23.282;2022-08-19T14:12:44;5.97;;;4.38;;
6392;SDS011;3229;42.674;23.282;2022-08-19T14:15:13;7.75;;;4.85;;
6392;SDS011;3229;42.674;23.282;2022-08-19T14:17:41;9.70;;;6.90;;
6392;SDS011;3229;42.674;23.282;2022-08-19T14:20:10;9.05;;;4.82;;
6392;SDS011;3229;42.674;23.282;2022-08-19T14:22:40;5.82;;;4.60;;
6392;SDS011;3229;42.674;23.282;2022-08-19T14:25:10;8.05;;;4.38;;
6392;SDS011;3229;42.674;23.282;2022-08-19T14:27:41;8.23;;;4.90;;
6392;SDS011;3229;42.674;23.282;2022-08-19T14:30:13;5.18;;;4.63;;
6392;SDS011;3229;42.674;23.282;2022-08-19T14:32:41;5.68;;;4.55;;
6392;SDS011;3229;42.674;23.282;2022-08-19T14:35:09;6.78;;;4.28;;
6392;SDS011;3229;42.674;23.282;2022-08-19T14:37:37;5.18;;;3.92;;
6392;SDS011;3229;42.674;23.282;2022-08-19T14:40:05;4.63;;;3.85;;
6392;SDS011;3229;42.674;23.282;2022-08-19T14:42:33;3.97;;;3.60;;
6392;SDS011;3229;42.674;23.282;2022-08-19T14:45:02;6.38;;;4.07;;
6392;SDS011;3229;42.674;23.282;2022-08-19T14:47:31;6.30;;;4.40;;
6392;SDS011;3229;42.674;23.282;2022-08-19T14:49:58;12.63;;;4.20;;
6392;SDS011;3229;42.674;23.282;2022-08-19T14:52:25;5.55;;;4.43;;
6392;SDS011;3229;42.674;23.282;2022-08-19T14:54:52;9.98;;;5.55;;
6392;SDS011;3229;42.674;23.282;2022-08-19T14:57:18;9.90;;;4.65;;
6392;SDS011;3229;42.674;23.282;2022-08-19T14:59:45;7.75;;;4.78;;
6392;SDS011;3229;42.674;23.282;2022-08-19T15:02:14;11.15;;;4.68;;
6392;SDS011;3229;42.674;23.282;2022-08-19T15:04:40;5.68;;;5.07;;
6392;SDS011;3229;42.674;23.282;2022-08-19T15:07:09;5.80;;;4.80;;
6392;SDS011;3229;42.674;23.282;2022-08-19T15:09:36;6.22;;;3.97;;